createdAt,value
2022-11-07T00:02:11.346Z,22.47
2022-11-07T00:04:57.848Z,18.43
2022-11-07T00:07:44.898Z,18.87
2022-11-07T00:10:31.351Z,24.43
2022-11-07T00:13:19.358Z,20.33
2022-11-07T00:16:08.400Z,19.27
2022-11-07T00:18:55.292Z,18.23
2022-11-07T00:21:42.759Z,19.13
2022-11-07T00:24:29.451Z,17.90
2022-11-07T00:27:16.338Z,15.67
2022-11-07T00:30:05.001Z,18.73
2022-11-07T00:32:54.231Z,14.50
2022-11-07T00:35:44.524Z,17.60
2022-11-07T00:38:31.414Z,18.43
2022-11-07T00:41:18.871Z,12.50
2022-11-07T00:44:05.620Z,16.50
2022-11-07T00:46:53.631Z,13.07
2022-11-07T00:49:40.404Z,17.47
2022-11-07T00:52:27.244Z,17.30
2022-11-07T00:55:14.061Z,15.27
2022-11-07T00:58:00.723Z,16.17
2022-11-07T01:00:47.425Z,14.83
2022-11-07T01:03:52.990Z,18.03
2022-11-07T01:06:43.338Z,15.77
2022-11-07T01:09:29.890Z,16.60
2022-11-07T01:12:17.601Z,15.17
2022-11-07T01:15:05.401Z,18.03
2022-11-07T01:17:52.094Z,15.70
2022-11-07T01:20:41.068Z,18.27
2022-11-07T01:23:27.864Z,18.80
2022-11-07T01:26:15.875Z,16.07
2022-11-07T01:29:02.452Z,13.90
2022-11-07T01:31:49.540Z,14.67
2022-11-07T01:34:36.306Z,15.27
2022-11-07T01:37:24.136Z,16.73
2022-11-07T01:40:12.025Z,16.10
2022-11-07T01:42:58.854Z,15.00
2022-11-07T01:45:45.600Z,13.87
2022-11-07T01:48:32.316Z,16.50
2022-11-07T01:51:20.897Z,14.10
2022-11-07T01:54:09.447Z,14.63
2022-11-07T01:56:59.544Z,15.23
2022-11-07T01:59:46.017Z,16.40
2022-11-07T02:02:33.991Z,16.53
2022-11-07T02:05:26.837Z,15.30
2022-11-07T02:08:15.409Z,15.97
2022-11-07T02:11:04.911Z,13.10
2022-11-07T02:13:51.612Z,16.93
2022-11-07T02:16:39.035Z,15.60
2022-11-07T02:19:34.483Z,14.50
2022-11-07T02:22:27.282Z,16.00
2022-11-07T02:25:18.155Z,19.47
2022-11-07T02:28:08.585Z,16.60
2022-11-07T02:30:55.077Z,14.13
2022-11-07T02:33:42.016Z,13.80
2022-11-07T02:36:28.513Z,14.53
2022-11-07T02:39:15.482Z,14.87
2022-11-07T02:42:05.458Z,17.40
2022-11-07T02:44:53.899Z,17.57
2022-11-07T02:47:40.571Z,13.50
2022-11-07T02:50:27.373Z,14.43
2022-11-07T02:53:14.111Z,16.00
2022-11-07T02:56:01.060Z,16.17
2022-11-07T02:58:49.540Z,17.07
2022-11-07T03:01:36.492Z,15.47
2022-11-07T03:04:24.205Z,15.13
2022-11-07T03:07:10.566Z,16.90
2022-11-07T03:09:57.270Z,16.43
2022-11-07T03:12:44.494Z,19.70
2022-11-07T03:15:32.255Z,14.17
2022-11-07T03:18:19.356Z,14.30
2022-11-07T03:21:07.115Z,17.30
2022-11-07T03:23:53.510Z,18.33
2022-11-07T03:26:40.186Z,16.30
2022-11-07T03:29:27.005Z,17.27
2022-11-07T03:32:15.253Z,17.13
2022-11-07T03:35:01.694Z,17.93
2022-11-07T03:37:49.667Z,17.37
2022-11-07T03:40:36.328Z,19.30
2022-11-07T03:43:22.963Z,16.77
2022-11-07T03:46:09.683Z,19.30
2022-11-07T03:48:58.152Z,18.37
2022-11-07T03:51:44.767Z,19.67
2022-11-07T03:54:31.694Z,13.93
2022-11-07T03:57:18.440Z,14.40
2022-11-07T04:00:06.996Z,18.43
2022-11-07T04:02:58.450Z,12.87
2022-11-07T04:05:46.439Z,13.83
2022-11-07T04:08:33.310Z,13.07
2022-11-07T04:11:33.893Z,18.33
2022-11-07T04:14:37.911Z,15.13
2022-11-07T04:17:25.797Z,12.80
2022-11-07T04:20:13.011Z,12.23
2022-11-07T04:23:01.057Z,16.00
2022-11-07T04:26:05.382Z,15.53
2022-11-07T04:28:52.332Z,13.93
2022-11-07T04:31:39.152Z,13.67
2022-11-07T04:34:25.882Z,14.17
2022-11-07T04:37:13.459Z,12.30
2022-11-07T04:40:01.727Z,15.37
2022-11-07T04:42:50.519Z,13.03
2022-11-07T04:45:38.043Z,11.87
2022-11-07T04:48:24.882Z,13.07
2022-11-07T04:51:16.446Z,14.63
2022-11-07T04:54:03.260Z,11.27
2022-11-07T04:56:51.340Z,12.47
2022-11-07T04:59:38.105Z,11.83
2022-11-07T05:02:26.094Z,11.90
2022-11-07T05:05:12.772Z,10.30
2022-11-07T05:07:59.470Z,13.40
2022-11-07T05:10:46.428Z,17.40
2022-11-07T05:13:34.472Z,12.13
2022-11-07T05:16:22.519Z,12.87
2022-11-07T05:19:13.346Z,12.67
2022-11-07T05:22:17.537Z,12.00
2022-11-07T05:25:04.405Z,11.53
2022-11-07T05:27:55.746Z,10.17
2022-11-07T05:30:44.616Z,12.60
2022-11-07T05:33:31.685Z,12.00
2022-11-07T05:36:19.954Z,8.57
2022-11-07T05:39:06.444Z,11.33
2022-11-07T05:41:53.236Z,7.53
2022-11-07T05:44:40.207Z,5.93
2022-11-07T05:47:28.265Z,11.30
2022-11-07T05:50:15.029Z,8.73
2022-11-07T05:53:02.500Z,10.07
2022-11-07T05:55:49.425Z,9.40
2022-11-07T05:58:36.149Z,13.90
2022-11-07T06:01:22.856Z,16.70
2022-11-07T06:04:11.312Z,9.67
2022-11-07T06:06:58.170Z,9.57
2022-11-07T06:09:44.855Z,10.33
2022-11-07T06:12:31.556Z,8.13
2022-11-07T06:15:18.109Z,10.23
2022-11-07T06:18:07.261Z,8.90
2022-11-07T06:20:55.207Z,14.00
2022-11-07T06:23:41.991Z,7.73
2022-11-07T06:26:28.834Z,7.90
2022-11-07T06:29:15.474Z,8.13
2022-11-07T06:32:02.193Z,8.10
2022-11-07T06:34:49.242Z,8.60
2022-11-07T06:37:37.142Z,8.77
2022-11-07T06:40:24.083Z,7.97
2022-11-07T06:43:12.385Z,9.83
2022-11-07T06:45:59.209Z,9.73
2022-11-07T06:48:46.044Z,10.43
2022-11-07T06:51:33.188Z,6.90
2022-11-07T06:54:21.212Z,8.17
2022-11-07T06:57:07.770Z,10.43
2022-11-07T06:59:54.583Z,9.73
2022-11-07T07:02:57.984Z,7.07
2022-11-07T07:05:45.413Z,10.60
2022-11-07T07:08:32.586Z,8.43
2022-11-07T07:11:20.762Z,11.23
2022-11-07T07:14:11.590Z,7.80
2022-11-07T07:16:59.037Z,7.87
2022-11-07T07:19:46.516Z,6.20
2022-11-07T07:22:33.585Z,6.93
2022-11-07T07:25:20.142Z,7.73
2022-11-07T07:28:08.296Z,9.10
2022-11-07T07:30:55.676Z,10.97
2022-11-07T07:33:42.793Z,7.97
2022-11-07T07:36:29.343Z,8.37
2022-11-07T07:39:16.179Z,8.40
2022-11-07T07:42:03.130Z,6.47
2022-11-07T07:44:52.767Z,6.20
2022-11-07T07:47:39.531Z,5.70
2022-11-07T07:50:26.301Z,12.00
2022-11-07T07:53:13.137Z,5.73
2022-11-07T07:56:00.844Z,6.97
2022-11-07T07:58:47.833Z,6.73
2022-11-07T08:01:36.314Z,6.47
2022-11-07T08:04:22.930Z,11.03
2022-11-07T08:07:09.736Z,7.90
2022-11-07T08:09:59.350Z,5.00
2022-11-07T08:12:50.346Z,8.17
2022-11-07T08:15:37.405Z,7.93
2022-11-07T08:18:26.227Z,8.67
2022-11-07T08:21:12.695Z,8.13
2022-11-07T08:24:01.026Z,5.40
2022-11-07T08:26:47.800Z,6.97
2022-11-07T08:29:34.415Z,7.83
2022-11-07T08:32:21.265Z,6.50
2022-11-07T08:35:10.422Z,9.20
2022-11-07T08:37:57.343Z,4.93
2022-11-07T08:40:44.027Z,7.77
2022-11-07T08:43:30.872Z,8.60
2022-11-07T08:46:17.445Z,9.33
2022-11-07T08:49:04.196Z,5.30
2022-11-07T08:51:52.190Z,7.57
2022-11-07T08:54:39.784Z,6.40
2022-11-07T08:57:26.440Z,4.80
2022-11-07T09:00:14.309Z,4.07
2022-11-07T09:03:38.787Z,4.17
2022-11-07T09:06:12.719Z,7.83
2022-11-07T09:09:01.083Z,4.53
2022-11-07T09:11:47.574Z,7.13
2022-11-07T09:14:34.385Z,4.97
2022-11-07T09:17:21.322Z,5.20
2022-11-07T09:20:09.770Z,5.13
2022-11-07T09:22:57.832Z,4.20
2022-11-07T09:25:46.779Z,4.67
2022-11-07T09:28:33.737Z,3.80
2022-11-07T09:31:20.562Z,5.27
2022-11-07T09:34:07.764Z,5.80
2022-11-07T09:36:54.384Z,5.20
2022-11-07T09:39:41.493Z,5.53
2022-11-07T09:42:43.834Z,3.63
2022-11-07T09:45:32.280Z,6.47
2022-11-07T09:48:24.828Z,4.80
2022-11-07T09:51:16.836Z,2.30
2022-11-07T09:54:10.287Z,4.63
2022-11-07T09:56:59.645Z,3.73
2022-11-07T09:59:54.247Z,4.47
2022-11-07T10:02:45.415Z,2.73
2022-11-07T10:05:39.768Z,3.73
2022-11-07T10:08:31.091Z,4.13
2022-11-07T10:11:30.767Z,4.80
2022-11-07T10:14:29.013Z,4.90
2022-11-07T10:17:26.773Z,2.20
2022-11-07T10:20:24.438Z,2.63
2022-11-07T10:23:30.006Z,2.43
2022-11-07T10:26:21.030Z,2.73
2022-11-07T10:29:14.335Z,2.67
2022-11-07T10:32:16.594Z,3.87
2022-11-07T10:35:16.955Z,4.07
2022-11-07T10:38:18.613Z,3.87
2022-11-07T10:41:05.127Z,3.83
2022-11-07T10:43:57.716Z,1.77
2022-11-07T10:46:47.768Z,5.73
2022-11-07T10:49:37.040Z,6.07
2022-11-07T10:52:26.149Z,3.33
2022-11-07T10:55:16.908Z,2.37
2022-11-07T10:58:07.899Z,5.57
2022-11-07T11:01:00.235Z,6.17
2022-11-07T11:03:49.741Z,4.43
2022-11-07T11:06:36.198Z,2.87
2022-11-07T11:09:31.174Z,2.77
2022-11-07T11:12:21.905Z,2.93
2022-11-07T11:15:13.529Z,3.50
2022-11-07T11:18:01.942Z,4.33
2022-11-07T11:20:57.221Z,2.30
2022-11-07T11:23:46.287Z,9.87
2022-11-07T11:26:39.786Z,3.33
2022-11-07T11:29:39.193Z,1.47
2022-11-07T11:32:31.918Z,2.00
2022-11-07T11:35:37.581Z,4.53
2022-11-07T11:38:30.899Z,5.00
2022-11-07T11:41:22.824Z,3.00
2022-11-07T11:44:19.565Z,1.93
2022-11-07T11:47:15.287Z,2.90
2022-11-07T11:50:05.225Z,4.73
2022-11-07T11:52:52.128Z,3.77
2022-11-07T11:55:52.230Z,4.40
2022-11-07T11:58:49.878Z,4.37
2022-11-07T12:01:47.093Z,1.80
2022-11-07T12:04:50.878Z,3.00
2022-11-07T12:07:52.931Z,1.70
2022-11-07T12:10:45.469Z,2.50
2022-11-07T12:13:41.899Z,6.43
2022-11-07T12:16:35.655Z,5.17
2022-11-07T12:19:30.183Z,4.90
2022-11-07T12:22:25.584Z,4.33
2022-11-07T12:25:21.776Z,3.97
2022-11-07T12:28:28.325Z,3.80
2022-11-07T12:31:29.441Z,3.23
2022-11-07T12:34:29.388Z,3.10
2022-11-07T12:37:33.489Z,6.20
2022-11-07T12:40:30.415Z,6.00
2022-11-07T12:43:32.940Z,2.83
2022-11-07T12:46:26.990Z,1.87
2022-11-07T12:49:38.437Z,4.07
2022-11-07T12:52:38.224Z,5.50
2022-11-07T12:55:29.945Z,3.00
2022-11-07T12:58:21.881Z,3.93
2022-11-07T13:01:09.377Z,6.00
2022-11-07T13:04:12.173Z,3.10
2022-11-07T13:07:08.019Z,2.93
2022-11-07T13:10:00.899Z,2.73
2022-11-07T13:12:59.267Z,3.33
2022-11-07T13:16:13.655Z,6.10
2022-11-07T13:18:52.554Z,6.10
2022-11-07T13:21:43.475Z,5.20
2022-11-07T13:24:32.986Z,3.47
2022-11-07T13:27:23.471Z,3.33
2022-11-07T13:30:20.852Z,5.20
2022-11-07T13:33:09.223Z,2.40
2022-11-07T13:35:58.726Z,3.60
2022-11-07T13:38:51.836Z,1.70
2022-11-07T13:41:40.936Z,6.97
2022-11-07T13:44:30.086Z,2.03
2022-11-07T13:47:26.260Z,4.60
2022-11-07T13:50:21.270Z,2.83
2022-11-07T13:53:17.604Z,4.57
2022-11-07T13:56:10.752Z,3.33
2022-11-07T13:59:01.247Z,2.83
2022-11-07T14:01:47.987Z,4.93
2022-11-07T14:04:40.491Z,6.70
2022-11-07T14:07:43.215Z,4.53
2022-11-07T14:10:34.664Z,5.20
2022-11-07T14:13:24.156Z,4.33
2022-11-07T14:16:21.691Z,3.17
2022-11-07T14:19:15.609Z,1.67
2022-11-07T14:22:02.517Z,2.97
2022-11-07T14:24:53.554Z,7.37
2022-11-07T14:27:47.092Z,4.00
2022-11-07T14:30:34.106Z,5.03
2022-11-07T14:33:23.696Z,3.97
2022-11-07T14:36:13.372Z,5.80
2022-11-07T14:39:04.381Z,10.30
2022-11-07T14:41:52.795Z,3.30
2022-11-07T14:44:58.519Z,1.87
2022-11-07T14:47:46.440Z,2.13
2022-11-07T14:50:35.282Z,2.83
2022-11-07T14:53:26.388Z,3.17
2022-11-07T14:56:17.483Z,4.83
2022-11-07T14:59:04.448Z,9.30
2022-11-07T15:01:55.000Z,3.50
2022-11-07T15:04:44.855Z,6.33
2022-11-07T15:07:35.353Z,6.47
2022-11-07T15:10:28.564Z,2.97
2022-11-07T15:13:25.308Z,5.87
2022-11-07T15:16:17.547Z,5.93
2022-11-07T15:19:08.741Z,3.27
2022-11-07T15:21:58.388Z,4.10
2022-11-07T15:24:47.263Z,2.00
2022-11-07T15:27:40.430Z,3.43
2022-11-07T15:30:30.335Z,6.63
2022-11-07T15:33:18.732Z,6.97
2022-11-07T15:36:08.597Z,5.47
2022-11-07T15:38:56.336Z,4.70
2022-11-07T15:41:44.553Z,9.13
2022-11-07T15:44:31.319Z,4.60
2022-11-07T15:47:21.449Z,5.10
2022-11-07T15:50:16.538Z,6.17
2022-11-07T15:53:03.247Z,7.60
2022-11-07T15:55:52.709Z,8.07
2022-11-07T15:58:42.462Z,3.53
2022-11-07T16:01:30.342Z,10.40
2022-11-07T16:04:18.243Z,5.40
2022-11-07T16:07:06.968Z,6.57
2022-11-07T16:09:55.486Z,4.67
2022-11-07T16:12:47.006Z,3.10
2022-11-07T16:15:46.411Z,6.50
2022-11-07T16:18:39.930Z,5.83
2022-11-07T16:21:27.541Z,4.60
2022-11-07T16:24:16.639Z,6.23
2022-11-07T16:27:09.442Z,8.70
2022-11-07T16:30:00.585Z,5.03
2022-11-07T16:32:50.300Z,4.97
2022-11-07T16:35:38.006Z,3.93
2022-11-07T16:38:31.353Z,5.63
2022-11-07T16:41:21.173Z,4.93
2022-11-07T16:44:07.624Z,8.60
2022-11-07T16:46:55.766Z,4.63
2022-11-07T16:49:44.051Z,4.83
2022-11-07T16:52:30.954Z,4.73
2022-11-07T16:55:18.532Z,5.90
2022-11-07T16:58:05.130Z,4.30
2022-11-07T17:00:54.297Z,4.67
2022-11-07T17:03:46.783Z,4.90
2022-11-07T17:06:38.315Z,5.50
2022-11-07T17:09:27.987Z,10.23
2022-11-07T17:12:16.209Z,10.23
2022-11-07T17:15:03.218Z,8.07
2022-11-07T17:17:49.908Z,9.30
2022-11-07T17:20:52.544Z,5.77
2022-11-07T17:23:40.555Z,5.83
2022-11-07T17:26:29.942Z,8.10
2022-11-07T17:29:17.339Z,5.43
2022-11-07T17:32:03.990Z,4.63
2022-11-07T17:35:17.780Z,7.43
2022-11-07T17:37:58.051Z,4.93
2022-11-07T17:40:46.066Z,6.37
2022-11-07T17:43:32.617Z,6.30
2022-11-07T17:46:21.883Z,4.43
2022-11-07T17:49:09.785Z,7.03
2022-11-07T17:51:56.798Z,3.83
2022-11-07T17:54:44.129Z,8.87
2022-11-07T17:57:32.458Z,3.90
2022-11-07T18:00:21.144Z,3.23
2022-11-07T18:03:08.008Z,7.60
2022-11-07T18:05:54.644Z,4.20
2022-11-07T18:08:52.328Z,5.97
2022-11-07T18:11:39.583Z,4.23
2022-11-07T18:14:27.740Z,9.47
2022-11-07T18:17:14.284Z,3.27
2022-11-07T18:20:02.059Z,6.80
2022-11-07T18:22:48.802Z,4.80
2022-11-07T18:25:35.576Z,9.57
2022-11-07T18:28:22.947Z,5.30
2022-11-07T18:31:13.810Z,5.33
2022-11-07T18:34:02.062Z,6.97
2022-11-07T18:36:48.939Z,4.77
2022-11-07T18:39:36.166Z,8.03
2022-11-07T18:42:22.702Z,4.63
2022-11-07T18:45:10.418Z,8.13
2022-11-07T18:47:58.319Z,3.47
2022-11-07T18:50:45.112Z,5.80
2022-11-07T18:53:34.107Z,6.67
2022-11-07T18:56:21.475Z,4.03
2022-11-07T18:59:08.285Z,8.07
2022-11-07T19:01:55.296Z,5.07
2022-11-07T19:04:44.039Z,5.23
2022-11-07T19:07:30.974Z,9.43
2022-11-07T19:10:18.174Z,7.20
2022-11-07T19:13:08.184Z,4.90
2022-11-07T19:15:56.727Z,2.73
2022-11-07T19:18:48.914Z,6.93
2022-11-07T19:21:41.391Z,4.97
2022-11-07T19:24:30.118Z,4.40
2022-11-07T19:27:18.163Z,5.83
2022-11-07T19:30:06.320Z,8.03
2022-11-07T19:32:53.698Z,2.20
2022-11-07T19:35:41.680Z,3.33
2022-11-07T19:38:31.563Z,5.40
2022-11-07T19:41:19.714Z,6.37
2022-11-07T19:44:07.260Z,4.53
2022-11-07T19:46:53.891Z,5.73
2022-11-07T19:49:40.785Z,7.70
2022-11-07T19:52:28.806Z,5.27
2022-11-07T19:55:20.986Z,10.43
2022-11-07T19:58:07.703Z,7.80
2022-11-07T20:00:54.490Z,6.33
2022-11-07T20:03:44.614Z,12.20
2022-11-07T20:06:35.658Z,6.83
2022-11-07T20:09:22.549Z,6.03
2022-11-07T20:12:10.758Z,7.27
2022-11-07T20:14:57.286Z,5.87
2022-11-07T20:17:44.543Z,6.30
2022-11-07T20:20:30.947Z,4.30
2022-11-07T20:23:18.081Z,7.67
2022-11-07T20:26:07.008Z,4.50
2022-11-07T20:28:55.302Z,4.70
2022-11-07T20:31:44.028Z,11.67
2022-11-07T20:34:31.839Z,6.57
2022-11-07T20:37:21.029Z,5.90
2022-11-07T20:40:09.071Z,6.10
2022-11-07T20:42:55.603Z,4.70
2022-11-07T20:45:43.772Z,3.87
2022-11-07T20:48:31.034Z,6.20
2022-11-07T20:51:20.116Z,8.10
2022-11-07T20:54:06.956Z,2.90
2022-11-07T20:56:54.783Z,5.70
2022-11-07T20:59:42.320Z,6.53
2022-11-07T21:02:30.502Z,6.07
2022-11-07T21:05:18.708Z,7.33
2022-11-07T21:08:07.046Z,3.43
2022-11-07T21:10:55.539Z,3.50
2022-11-07T21:13:49.660Z,5.07
2022-11-07T21:16:39.361Z,3.57
2022-11-07T21:19:29.305Z,4.50
2022-11-07T21:22:15.850Z,7.30
2022-11-07T21:25:04.497Z,6.13
2022-11-07T21:27:51.008Z,6.17
2022-11-07T21:30:37.749Z,6.23
2022-11-07T21:33:24.287Z,6.53
2022-11-07T21:36:15.462Z,3.47
2022-11-07T21:39:06.257Z,7.57
2022-11-07T21:41:53.662Z,5.37
2022-11-07T21:44:40.611Z,4.73
2022-11-07T21:47:27.338Z,6.97
2022-11-07T21:50:43.127Z,3.40
2022-11-07T21:53:25.536Z,7.33
2022-11-07T21:56:15.521Z,4.43
2022-11-07T21:59:04.273Z,8.43
2022-11-07T22:01:51.158Z,4.83
2022-11-07T22:04:37.792Z,7.53
2022-11-07T22:07:24.507Z,3.67
2022-11-07T22:10:12.827Z,8.20
2022-11-07T22:13:02.632Z,3.60
2022-11-07T22:15:50.014Z,5.60
2022-11-07T22:18:36.900Z,4.83
2022-11-07T22:21:24.502Z,5.70
2022-11-07T22:24:11.977Z,5.20
2022-11-07T22:27:01.167Z,7.57
2022-11-07T22:29:49.976Z,5.93
2022-11-07T22:32:36.935Z,6.53
2022-11-07T22:35:23.643Z,6.17
2022-11-07T22:38:10.410Z,6.20
2022-11-07T22:40:57.514Z,2.33
2022-11-07T22:43:45.537Z,4.40
2022-11-07T22:46:32.394Z,7.73
2022-11-07T22:49:19.052Z,4.93
2022-11-07T22:52:06.260Z,4.47
2022-11-07T22:54:52.615Z,8.00
2022-11-07T22:57:40.902Z,6.07
2022-11-07T23:00:29.218Z,5.73
2022-11-07T23:03:16.010Z,5.50
2022-11-07T23:06:06.253Z,9.97
2022-11-07T23:08:53.309Z,4.10
2022-11-07T23:11:48.397Z,5.67
2022-11-07T23:14:35.741Z,7.30
2022-11-07T23:17:23.897Z,5.37
2022-11-07T23:20:31.642Z,7.43
2022-11-07T23:23:18.127Z,7.73
2022-11-07T23:26:05.122Z,8.53
2022-11-07T23:28:52.309Z,7.33
2022-11-07T23:31:39.698Z,4.03
2022-11-07T23:34:27.655Z,7.77
2022-11-07T23:37:14.944Z,4.57
2022-11-07T23:40:02.163Z,6.10
2022-11-07T23:42:48.854Z,2.23
2022-11-07T23:45:52.798Z,4.70
2022-11-07T23:48:56.137Z,7.60
2022-11-07T23:51:44.743Z,4.50
2022-11-07T23:54:56.839Z,7.13
2022-11-07T23:57:57.350Z,8.53
